Time;durP1;ratioP1;P1;durP2;ratioP2;P2;SDS_P1;SDS_P2;PMS_P1;PMS_P2;Temp;Humidity;BMP_temperature;BMP_pressure;BME280_temperature;BME280_humidity;BME280_pressure;Samples;Min_cycle;Max_cycle;Signal;HPM_P1;HPM_P2
2022/09/01 00:01:37;;;;;;;1.58;1.33;;;;;;;;;;5052098;28;20476;-61
2022/09/01 00:04:04;;;;;;;4.60;1.40;;;;;;;;;;5033527;28;20049;-61
2022/09/01 00:06:31;;;;;;;1.70;1.20;;;;;;;;;;5015403;28;20044;-61
2022/09/01 00:08:59;;;;;;;3.60;1.33;;;;;;;;;;5014739;28;20140;-61
2022/09/01 00:11:26;;;;;;;3.35;1.42;;;;;;;;;;5032915;28;20081;-61
2022/09/01 00:13:52;;;;;;;2.97;1.48;;;;;;;;;;5033054;28;20095;-61
2022/09/01 00:16:19;;;;;;;3.22;1.52;;;;;;;;;;5032675;28;20341;-61
2022/09/01 00:18:48;;;;;;;2.13;1.92;;;;;;;;;;5033242;28;20037;-61
2022/09/01 00:21:16;;;;;;;3.65;1.10;;;;;;;;;;5033135;28;20041;-61
2022/09/01 00:23:42;;;;;;;3.42;1.42;;;;;;;;;;5032474;28;20045;-61
2022/09/01 00:26:08;;;;;;;3.53;1.33;;;;;;;;;;5042560;28;20048;-61
2022/09/01 00:28:35;;;;;;;2.35;1.40;;;;;;;;;;5052803;28;20036;-61
2022/09/01 00:31:01;;;;;;;2.10;1.33;;;;;;;;;;5052311;28;20043;-61
2022/09/01 00:33:27;;;;;;;3.63;1.40;;;;;;;;;;5052529;28;20207;-61
2022/09/01 00:35:54;;;;;;;2.90;1.27;;;;;;;;;;5052781;28;20051;-61
2022/09/01 00:38:20;;;;;;;4.40;1.40;;;;;;;;;;5052181;28;20515;-61
2022/09/01 00:40:46;;;;;;;2.47;1.40;;;;;;;;;;5052595;28;20041;-61
2022/09/01 00:43:13;;;;;;;3.25;1.35;;;;;;;;;;5052620;28;20486;-61
2022/09/01 00:45:40;;;;;;;3.65;1.27;;;;;;;;;;5052110;28;20107;-61
2022/09/01 00:48:08;;;;;;;4.93;1.40;;;;;;;;;;5052167;28;20781;-61
2022/09/01 00:50:35;;;;;;;4.68;1.50;;;;;;;;;;5052201;28;20088;-61
2022/09/01 00:53:01;;;;;;;3.15;1.42;;;;;;;;;;5052076;28;20052;-61
2022/09/01 00:55:29;;;;;;;5.93;1.17;;;;;;;;;;5052463;28;20091;-61
2022/09/01 00:57:55;;;;;;;3.03;1.13;;;;;;;;;;5052153;28;20129;-61
2022/09/01 01:00:23;;;;;;;2.90;1.00;;;;;;;;;;5051803;28;20235;-61
2022/09/01 01:02:55;;;;;;;1.50;1.20;;;;;;;;;;5041277;28;20490;-61
2022/09/01 01:05:26;;;;;;;2.13;0.93;;;;;;;;;;5032260;28;20041;-61
2022/09/01 01:07:54;;;;;;;1.88;1.20;;;;;;;;;;5031513;28;20069;-61
2022/09/01 01:10:21;;;;;;;3.25;1.38;;;;;;;;;;5031857;28;20463;-61
2022/09/01 01:12:50;;;;;;;3.67;1.55;;;;;;;;;;5031946;28;20052;-61
2022/09/01 01:15:16;;;;;;;3.53;1.20;;;;;;;;;;5031654;28;20130;-61
2022/09/01 01:17:42;;;;;;;1.80;1.25;;;;;;;;;;5031745;28;20029;-60
2022/09/01 01:23:07;;;;;;;4.15;1.40;;;;;;;;;;5030837;28;20045;-61
2022/09/01 01:25:41;;;;;;;2.72;1.40;;;;;;;;;;5036615;28;20202;-61
2022/09/01 01:28:17;;;;;;;5.70;1.48;;;;;;;;;;5051600;28;20080;-61
2022/09/01 01:30:49;;;;;;;1.92;1.30;;;;;;;;;;5051207;28;20056;-61
2022/09/01 01:33:16;;;;;;;2.20;1.38;;;;;;;;;;5051532;28;20045;-61
2022/09/01 01:35:42;;;;;;;3.28;1.50;;;;;;;;;;5051501;28;20040;-61
2022/09/01 01:38:08;;;;;;;3.40;1.52;;;;;;;;;;5050889;28;20041;-61
2022/09/01 01:40:35;;;;;;;2.53;1.50;;;;;;;;;;5051371;28;20654;-61
2022/09/01 01:43:02;;;;;;;3.38;1.55;;;;;;;;;;5051434;28;20468;-61
2022/09/01 01:45:29;;;;;;;2.65;1.35;;;;;;;;;;5051025;28;20429;-61
2022/09/01 01:47:55;;;;;;;1.83;1.30;;;;;;;;;;5051315;28;20048;-61
2022/09/01 01:50:32;;;;;;;1.60;1.30;;;;;;;;;;5051382;28;20102;-61
2022/09/01 01:53:00;;;;;;;3.28;1.40;;;;;;;;;;5050828;28;20044;-61
2022/09/01 01:55:30;;;;;;;3.10;1.20;;;;;;;;;;5051472;28;20081;-61
2022/09/01 01:57:56;;;;;;;4.88;1.50;;;;;;;;;;5051008;28;20135;-61
2022/09/01 02:00:27;;;;;;;3.35;1.40;;;;;;;;;;5050623;28;20045;-61
2022/09/01 02:02:54;;;;;;;2.05;1.50;;;;;;;;;;5039571;28;20041;-61
2022/09/01 02:05:23;;;;;;;2.40;1.30;;;;;;;;;;5031073;28;20150;-61
2022/09/01 02:07:50;;;;;;;2.22;1.50;;;;;;;;;;5030016;28;20065;-61
2022/09/01 02:10:16;;;;;;;2.20;1.63;;;;;;;;;;5031048;28;20114;-61
2022/09/01 02:12:42;;;;;;;4.55;1.50;;;;;;;;;;5030987;28;20125;-61
2022/09/01 02:15:10;;;;;;;3.15;1.33;;;;;;;;;;5030629;28;20515;-61
2022/09/01 02:17:38;;;;;;;2.58;1.45;;;;;;;;;;5030972;28;20194;-61
2022/09/01 02:20:05;;;;;;;2.58;1.75;;;;;;;;;;5030976;28;20107;-61
2022/09/01 02:22:31;;;;;;;1.90;1.42;;;;;;;;;;5030449;28;20041;-61
2022/09/01 02:24:59;;;;;;;2.08;1.40;;;;;;;;;;5030729;28;20049;-61
2022/09/01 02:27:28;;;;;;;2.60;1.27;;;;;;;;;;5030796;28;20041;-61
2022/09/01 02:29:54;;;;;;;1.73;1.33;;;;;;;;;;5030267;28;20404;-61
2022/09/01 02:32:21;;;;;;;3.47;1.40;;;;;;;;;;5030574;28;20107;-61
2022/09/01 02:34:52;;;;;;;2.10;1.70;;;;;;;;;;5030481;28;20651;-61
2022/09/01 02:37:24;;;;;;;3.20;1.40;;;;;;;;;;5030106;28;20041;-61
2022/09/01 02:39:52;;;;;;;2.80;1.40;;;;;;;;;;5030489;28;20041;-61
2022/09/01 02:42:25;;;;;;;6.40;1.63;;;;;;;;;;5030664;28;20056;-61
2022/09/01 02:44:52;;;;;;;3.92;1.27;;;;;;;;;;5030191;28;20052;-61
2022/09/01 02:47:18;;;;;;;2.03;1.25;;;;;;;;;;5030563;28;20042;-61
2022/09/01 02:49:45;;;;;;;5.05;1.77;;;;;;;;;;5030630;28;20041;-61
2022/09/01 02:52:14;;;;;;;3.58;1.48;;;;;;;;;;5030190;28;20046;-61
2022/09/01 02:54:44;;;;;;;2.10;1.70;;;;;;;;;;5012884;28;20499;-61
2022/09/01 02:57:11;;;;;;;3.28;1.30;;;;;;;;;;5030441;28;20048;-61
2022/09/01 02:59:37;;;;;;;1.73;1.50;;;;;;;;;;5029995;28;20055;-61
2022/09/01 03:02:05;;;;;;;2.97;1.80;;;;;;;;;;5013843;28;20068;-61
2022/09/01 03:04:33;;;;;;;3.03;1.55;;;;;;;;;;5030616;28;20519;-61
2022/09/01 03:07:00;;;;;;;1.60;1.20;;;;;;;;;;5029932;28;20396;-60
2022/09/01 03:09:26;;;;;;;2.60;1.73;;;;;;;;;;5030267;28;20079;-61
2022/09/01 03:11:53;;;;;;;3.58;1.50;;;;;;;;;;5030547;28;20041;-61
2022/09/01 03:14:19;;;;;;;4.32;1.20;;;;;;;;;;5029999;28;20041;-60
2022/09/01 03:16:45;;;;;;;2.65;1.40;;;;;;;;;;5030297;28;20065;-61
2022/09/01 03:19:13;;;;;;;1.85;1.50;;;;;;;;;;5030260;28;20053;-60
2022/09/01 03:21:40;;;;;;;3.28;1.80;;;;;;;;;;5029858;28;20197;-61
2022/09/01 03:24:07;;;;;;;3.05;1.60;;;;;;;;;;5030214;28;20531;-61
2022/09/01 03:26:35;;;;;;;6.22;1.75;;;;;;;;;;5030164;28;20037;-61
2022/09/01 03:29:01;;;;;;;2.75;1.98;;;;;;;;;;5029754;28;20156;-61
2022/09/01 03:31:28;;;;;;;4.22;1.55;;;;;;;;;;5029491;28;20046;-60
2022/09/01 03:33:55;;;;;;;2.70;1.85;;;;;;;;;;5011968;28;20057;-60
2022/09/01 03:36:22;;;;;;;2.35;1.40;;;;;;;;;;5029339;28;20049;-60
2022/09/01 03:38:50;;;;;;;3.25;1.48;;;;;;;;;;5029523;28;20759;-61
2022/09/01 03:41:17;;;;;;;2.60;1.60;;;;;;;;;;5029409;28;20038;-61
2022/09/01 03:43:44;;;;;;;2.05;1.50;;;;;;;;;;5029135;28;20401;-61
2022/09/01 03:46:14;;;;;;;2.80;1.35;;;;;;;;;;5031263;28;20045;-61
2022/09/01 03:48:41;;;;;;;3.08;1.75;;;;;;;;;;5033182;28;20041;-61
2022/09/01 03:51:08;;;;;;;3.42;1.80;;;;;;;;;;5033164;28;20105;-61
2022/09/01 03:53:36;;;;;;;4.82;1.80;;;;;;;;;;5033321;28;20052;-61
2022/09/01 03:56:03;;;;;;;2.00;1.60;;;;;;;;;;5033603;28;20052;-61
2022/09/01 03:58:29;;;;;;;2.75;1.70;;;;;;;;;;5033082;28;20045;-61
2022/09/01 04:00:57;;;;;;;3.92;1.60;;;;;;;;;;5033446;28;20472;-61
2022/09/01 04:03:24;;;;;;;2.90;1.70;;;;;;;;;;5048811;28;20119;-61
2022/09/01 04:05:51;;;;;;;1.70;1.60;;;;;;;;;;5052701;28;20123;-61
2022/09/01 04:08:17;;;;;;;2.33;1.73;;;;;;;;;;5052895;28;20063;-61
2022/09/01 04:10:48;;;;;;;3.38;1.70;;;;;;;;;;5053259;28;20048;-61
2022/09/01 04:13:25;;;;;;;3.28;1.73;;;;;;;;;;5052735;28;20100;-61
2022/09/01 04:15:52;;;;;;;3.25;1.75;;;;;;;;;;5053087;28;20055;-60
2022/09/01 04:18:20;;;;;;;3.83;1.63;;;;;;;;;;5053079;28;20067;-61
2022/09/01 04:20:50;;;;;;;4.15;1.83;;;;;;;;;;5052136;28;20053;-61
2022/09/01 04:23:28;;;;;;;4.15;1.85;;;;;;;;;;5052999;28;20369;-61
2022/09/01 04:25:58;;;;;;;2.22;1.60;;;;;;;;;;5045223;28;20116;-61
2022/09/01 04:28:25;;;;;;;2.58;1.48;;;;;;;;;;5032548;28;20180;-61
2022/09/01 04:30:54;;;;;;;3.25;1.60;;;;;;;;;;5032845;28;20041;-61
2022/09/01 04:33:21;;;;;;;6.32;1.50;;;;;;;;;;5032727;28;20049;-60
2022/09/01 04:35:51;;;;;;;3.25;1.80;;;;;;;;;;5032323;28;20053;-60
2022/09/01 04:38:17;;;;;;;6.28;1.83;;;;;;;;;;5014790;28;20075;-61
2022/09/01 04:40:43;;;;;;;3.42;1.80;;;;;;;;;;5032632;28;20045;-60
2022/09/01 04:43:10;;;;;;;2.50;1.95;;;;;;;;;;5032269;28;20464;-61
2022/09/01 04:45:36;;;;;;;2.20;1.55;;;;;;;;;;5032375;28;20120;-60
2022/09/01 04:48:03;;;;;;;1.70;1.58;;;;;;;;;;5032477;28;20124;-61
2022/09/01 04:50:31;;;;;;;2.10;1.90;;;;;;;;;;5031879;28;20045;-61
2022/09/01 04:53:01;;;;;;;3.67;1.92;;;;;;;;;;5032564;28;20050;-60
2022/09/01 04:55:28;;;;;;;2.92;1.60;;;;;;;;;;5032426;28;20392;-61
2022/09/01 04:57:56;;;;;;;3.33;1.88;;;;;;;;;;5030551;28;20045;-61
2022/09/01 05:00:23;;;;;;;4.68;1.80;;;;;;;;;;5014099;28;20100;-59
2022/09/01 05:02:51;;;;;;;3.08;1.95;;;;;;;;;;5043125;28;20049;-61
2022/09/01 05:05:17;;;;;;;3.20;2.10;;;;;;;;;;5051659;28;20417;-61
2022/09/01 05:07:43;;;;;;;4.20;2.00;;;;;;;;;;5051841;28;20369;-61
2022/09/01 05:10:09;;;;;;;2.45;1.80;;;;;;;;;;5045654;28;20067;-61
2022/09/01 05:12:35;;;;;;;2.10;1.70;;;;;;;;;;5049134;28;20087;-60
2022/09/01 05:15:05;;;;;;;2.83;1.70;;;;;;;;;;5051767;28;20087;-61
2022/09/01 05:17:32;;;;;;;5.45;1.73;;;;;;;;;;5041558;28;20405;-61
2022/09/01 05:19:58;;;;;;;2.63;1.45;;;;;;;;;;5031435;28;20476;-61
2022/09/01 05:22:25;;;;;;;6.03;1.90;;;;;;;;;;5031780;28;20052;-61
2022/09/01 05:24:51;;;;;;;4.05;1.83;;;;;;;;;;5031843;28;20049;-61
2022/09/01 05:27:18;;;;;;;4.65;1.83;;;;;;;;;;5042212;28;20069;-61
2022/09/01 05:29:45;;;;;;;4.05;1.70;;;;;;;;;;5031737;28;20064;-61
2022/09/01 05:32:11;;;;;;;2.65;1.70;;;;;;;;;;5031231;28;20131;-60
2022/09/01 05:34:38;;;;;;;3.20;1.65;;;;;;;;;;5013096;28;20046;-60
2022/09/01 05:37:07;;;;;;;4.93;1.90;;;;;;;;;;5031566;28;20112;-61
2022/09/01 05:39:36;;;;;;;3.97;2.03;;;;;;;;;;5031514;28;20049;-60
2022/09/01 05:42:03;;;;;;;3.63;1.92;;;;;;;;;;5030745;28;20380;-61
2022/09/01 05:44:29;;;;;;;2.63;1.80;;;;;;;;;;5031305;28;20132;-61
2022/09/01 05:46:58;;;;;;;4.10;1.98;;;;;;;;;;5031375;28;20045;-61
2022/09/01 05:49:27;;;;;;;2.90;1.80;;;;;;;;;;5031122;28;20479;-61
2022/09/01 05:51:54;;;;;;;3.22;1.83;;;;;;;;;;5031428;28;20135;-61
2022/09/01 05:54:24;;;;;;;3.38;1.58;;;;;;;;;;5013180;28;20049;-61
2022/09/01 05:56:52;;;;;;;5.28;2.08;;;;;;;;;;5030526;28;20081;-61
2022/09/01 05:59:19;;;;;;;3.53;1.90;;;;;;;;;;5031266;28;20048;-60
2022/09/01 06:01:47;;;;;;;4.18;1.92;;;;;;;;;;5032752;28;20120;-61
2022/09/01 06:04:14;;;;;;;2.28;1.70;;;;;;;;;;5050329;28;20091;-61
2022/09/01 06:06:48;;;;;;;2.58;1.73;;;;;;;;;;5050626;28;20040;-61
2022/09/01 06:09:16;;;;;;;4.90;2.10;;;;;;;;;;5050219;28;20052;-61
2022/09/01 06:11:45;;;;;;;3.80;1.73;;;;;;;;;;5050300;28;20045;-61
2022/09/01 06:14:12;;;;;;;2.22;1.70;;;;;;;;;;5050411;28;20051;-60
2022/09/01 06:16:38;;;;;;;6.78;1.90;;;;;;;;;;5050725;28;20123;-61
2022/09/01 06:19:05;;;;;;;2.00;1.80;;;;;;;;;;5050331;28;20087;-60
2022/09/01 06:21:31;;;;;;;3.70;1.90;;;;;;;;;;5049356;28;20695;-61
2022/09/01 06:23:57;;;;;;;4.25;2.08;;;;;;;;;;5042262;28;20111;-60
2022/09/01 06:26:28;;;;;;;2.58;2.25;;;;;;;;;;5041628;28;20043;-61
2022/09/01 06:28:56;;;;;;;3.95;1.98;;;;;;;;;;5049729;28;20043;-61
2022/09/01 06:31:25;;;;;;;2.85;1.70;;;;;;;;;;5036833;28;20048;-60
2022/09/01 06:33:52;;;;;;;4.88;2.00;;;;;;;;;;5036836;28;20045;-60
2022/09/01 06:36:20;;;;;;;3.00;1.83;;;;;;;;;;5038511;28;20060;-59
2022/09/01 06:38:47;;;;;;;2.65;1.60;;;;;;;;;;5039029;28;20041;-61
2022/09/01 06:41:14;;;;;;;2.88;1.75;;;;;;;;;;5046276;28;20045;-59
2022/09/01 06:43:40;;;;;;;2.25;2.08;;;;;;;;;;5046230;28;20554;-62
2022/09/01 06:46:08;;;;;;;3.40;1.90;;;;;;;;;;5035674;28;20068;-62
2022/09/01 06:48:35;;;;;;;3.28;1.80;;;;;;;;;;5042575;28;20072;-62
2022/09/01 06:51:02;;;;;;;3.30;1.60;;;;;;;;;;5049797;28;20460;-62
2022/09/01 06:53:30;;;;;;;4.57;1.92;;;;;;;;;;5024744;28;20093;-62
2022/09/01 06:55:57;;;;;;;2.00;1.83;;;;;;;;;;5011819;28;20056;-61
2022/09/01 06:58:24;;;;;;;4.93;2.30;;;;;;;;;;5040130;28;20119;-60
2022/09/01 07:00:50;;;;;;;5.47;2.38;;;;;;;;;;5045237;28;20120;-61
2022/09/01 07:03:16;;;;;;;3.75;2.00;;;;;;;;;;5042812;28;20068;-61
2022/09/01 07:05:46;;;;;;;3.72;1.67;;;;;;;;;;5049870;28;20044;-61
2022/09/01 07:08:18;;;;;;;3.50;1.88;;;;;;;;;;5024730;28;20045;-61
2022/09/01 07:10:49;;;;;;;4.85;1.90;;;;;;;;;;5040413;28;20498;-60
2022/09/01 07:13:22;;;;;;;2.25;1.63;;;;;;;;;;5037719;28;20579;-61
2022/09/01 07:15:49;;;;;;;3.15;1.60;;;;;;;;;;5039683;28;20053;-61
2022/09/01 07:18:17;;;;;;;3.17;1.67;;;;;;;;;;5029376;28;20037;-61
2022/09/01 07:20:44;;;;;;;2.90;1.60;;;;;;;;;;5030822;28;20041;-62
2022/09/01 07:23:10;;;;;;;3.15;1.50;;;;;;;;;;5036135;28;20704;-62
2022/09/01 07:25:40;;;;;;;3.33;1.50;;;;;;;;;;5029691;28;20053;-62
2022/09/01 07:28:06;;;;;;;3.08;1.42;;;;;;;;;;5033280;28;20144;-62
2022/09/01 07:30:34;;;;;;;1.70;1.42;;;;;;;;;;5050792;28;20059;-61
2022/09/01 07:33:01;;;;;;;2.40;1.70;;;;;;;;;;5035936;28;20124;-62
2022/09/01 07:35:30;;;;;;;5.35;1.92;;;;;;;;;;5036665;28;20041;-62
2022/09/01 07:37:56;;;;;;;3.30;1.70;;;;;;;;;;5033567;28;20520;-59
2022/09/01 07:40:22;;;;;;;4.35;2.00;;;;;;;;;;5040538;28;20036;-61
2022/09/01 07:42:48;;;;;;;4.55;1.70;;;;;;;;;;5053202;28;20120;-61
2022/09/01 07:45:16;;;;;;;2.92;1.70;;;;;;;;;;5046556;28;20552;-61
2022/09/01 07:47:43;;;;;;;5.00;1.67;;;;;;;;;;5034345;28;20091;-61
2022/09/01 07:50:11;;;;;;;3.55;1.60;;;;;;;;;;5053307;28;20128;-60
2022/09/01 07:52:43;;;;;;;3.78;1.50;;;;;;;;;;5052873;28;20037;-60
2022/09/01 07:55:10;;;;;;;;;;;;;;;;;;5049162;28;20186;-61
2022/09/01 07:57:37;;;;;;;3.13;1.52;;;;;;;;;;5042357;28;19921;-59
2022/09/01 08:00:04;;;;;;;2.97;1.70;;;;;;;;;;5044041;28;20048;-60
2022/09/01 08:02:31;;;;;;;4.22;1.40;;;;;;;;;;5043710;28;20125;-59
2022/09/01 08:04:59;;;;;;;3.95;1.45;;;;;;;;;;5040539;28;20045;-61
2022/09/01 08:07:25;;;;;;;3.30;1.50;;;;;;;;;;5040392;28;20072;-59
2022/09/01 08:09:51;;;;;;;4.03;1.90;;;;;;;;;;5034607;28;20349;-62
2022/09/01 08:12:17;;;;;;;2.65;1.30;;;;;;;;;;5044567;28;20042;-61
2022/09/01 08:14:45;;;;;;;3.65;1.60;;;;;;;;;;5044134;28;20061;-61
2022/09/01 08:17:11;;;;;;;2.55;1.33;;;;;;;;;;5029560;28;20057;-62
2022/09/01 08:19:37;;;;;;;2.40;1.50;;;;;;;;;;5024410;28;20111;-62
2022/09/01 08:22:03;;;;;;;3.65;1.60;;;;;;;;;;5040832;28;20476;-60
2022/09/01 08:24:30;;;;;;;1.65;1.50;;;;;;;;;;5042507;28;20037;-61
2022/09/01 08:26:56;;;;;;;2.25;1.40;;;;;;;;;;5041517;28;20040;-61
2022/09/01 08:29:22;;;;;;;9.45;1.70;;;;;;;;;;5040942;28;20045;-61
2022/09/01 08:31:48;;;;;;;2.83;1.50;;;;;;;;;;5042216;28;20120;-60
2022/09/01 08:34:15;;;;;;;2.17;1.30;;;;;;;;;;5041839;28;20037;-61
2022/09/01 08:36:42;;;;;;;1.48;1.08;;;;;;;;;;5043475;28;20128;-62
2022/09/01 08:39:08;;;;;;;2.63;1.30;;;;;;;;;;5023014;28;20041;-62
2022/09/01 08:41:49;;;;;;;5.05;1.35;;;;;;;;;;5041677;28;20107;-61
2022/09/01 08:44:24;;;;;;;2.10;1.13;;;;;;;;;;5042512;28;20044;-61
2022/09/01 08:46:55;;;;;;;3.97;1.02;;;;;;;;;;5040856;28;20048;-61
2022/09/01 08:49:23;;;;;;;1.65;1.30;;;;;;;;;;5043075;28;20492;-61
2022/09/01 08:51:51;;;;;;;3.05;1.10;;;;;;;;;;5039946;28;20369;-61
2022/09/01 08:54:36;;;;;;;1.52;0.90;;;;;;;;;;5032547;28;20033;-61
2022/09/01 08:57:08;;;;;;;3.33;1.17;;;;;;;;;;5039012;28;20076;-61
2022/09/01 08:59:34;;;;;;;3.22;1.17;;;;;;;;;;5046843;28;20048;-60
2022/09/01 09:02:20;;;;;;;3.92;1.23;;;;;;;;;;5035657;28;20536;-62
2022/09/01 09:05:01;;;;;;;1.63;1.00;;;;;;;;;;5031049;28;20080;-62
2022/09/01 09:07:36;;;;;;;4.50;1.10;;;;;;;;;;5031941;28;20123;-62
2022/09/01 09:10:31;;;;;;;2.55;0.85;;;;;;;;;;5047006;28;20136;-61
2022/09/01 09:13:01;;;;;;;1.80;0.90;;;;;;;;;;5026277;28;20056;-61
2022/09/01 09:15:32;;;;;;;1.52;0.80;;;;;;;;;;5051581;28;20589;-61
2022/09/01 09:18:09;;;;;;;1.10;0.88;;;;;;;;;;5032580;28;20037;-60
2022/09/01 09:20:35;;;;;;;4.78;0.90;;;;;;;;;;5012589;28;20060;-60
2022/09/01 09:23:06;;;;;;;2.80;0.98;;;;;;;;;;5030666;28;20046;-59
2022/09/01 09:25:32;;;;;;;1.40;0.80;;;;;;;;;;5040263;28;20080;-61
2022/09/01 09:27:58;;;;;;;0.93;0.80;;;;;;;;;;5030509;28;20049;-61
2022/09/01 09:30:28;;;;;;;3.25;1.00;;;;;;;;;;5029072;28;20049;-61
2022/09/01 09:32:59;;;;;;;2.00;0.95;;;;;;;;;;5040978;28;20037;-59
2022/09/01 09:35:31;;;;;;;3.85;0.90;;;;;;;;;;5038154;28;20103;-60
2022/09/01 09:38:18;;;;;;;2.65;0.80;;;;;;;;;;5039274;28;20040;-61
2022/09/01 09:41:03;;;;;;;5.38;0.82;;;;;;;;;;5039632;28;20037;-59
2022/09/01 09:43:30;;;;;;;3.13;0.70;;;;;;;;;;5040039;28;20080;-59
2022/09/01 09:46:15;;;;;;;4.50;1.10;;;;;;;;;;5036964;28;20396;-59
2022/09/01 09:48:41;;;;;;;1.08;0.90;;;;;;;;;;5035438;28;20033;-63
2022/09/01 09:51:21;;;;;;;1.58;0.60;;;;;;;;;;5038499;28;20482;-61
2022/09/01 09:53:47;;;;;;;1.88;0.77;;;;;;;;;;5039754;28;20091;-61
2022/09/01 09:56:24;;;;;;;1.38;0.70;;;;;;;;;;5043834;28;20423;-62
2022/09/01 09:58:51;;;;;;;3.70;0.73;;;;;;;;;;5030198;28;20045;-60
2022/09/01 10:01:24;;;;;;;6.75;0.80;;;;;;;;;;5039526;28;20044;-60
2022/09/01 10:04:00;;;;;;;2.53;0.70;;;;;;;;;;5049060;28;20080;-61
2022/09/01 10:06:37;;;;;;;1.13;1.00;;;;;;;;;;5030291;28;20026;-62
2022/09/01 10:09:15;;;;;;;2.92;0.52;;;;;;;;;;5028702;28;20049;-60
2022/09/01 10:11:42;;;;;;;2.25;0.60;;;;;;;;;;5030347;28;20042;-61
2022/09/01 10:14:49;;;;;;;3.63;0.57;;;;;;;;;;5040402;28;20527;-60
2022/09/01 10:17:17;;;;;;;0.90;0.70;;;;;;;;;;4942954;28;20055;-62
2022/09/01 10:19:48;;;;;;;2.30;0.80;;;;;;;;;;4948849;29;20556;-62
2022/09/01 10:22:14;;;;;;;2.37;0.50;;;;;;;;;;5000339;28;20484;-61
2022/09/01 10:24:40;;;;;;;2.28;0.52;;;;;;;;;;5042034;28;20049;-60
2022/09/01 10:27:10;;;;;;;0.75;0.50;;;;;;;;;;5047598;28;20587;-61
2022/09/01 10:29:55;;;;;;;3.85;0.60;;;;;;;;;;5035724;28;20049;-60
2022/09/01 10:32:26;;;;;;;2.65;0.70;;;;;;;;;;5033517;28;20045;-58
2022/09/01 10:34:53;;;;;;;0.75;0.40;;;;;;;;;;5042235;28;20037;-59
2022/09/01 10:37:19;;;;;;;2.10;0.70;;;;;;;;;;5039057;28;20349;-59
2022/09/01 10:40:04;;;;;;;2.30;0.60;;;;;;;;;;5049032;28;20137;-59
2022/09/01 10:42:30;;;;;;;1.05;0.60;;;;;;;;;;5029240;28;20041;-61
2022/09/01 10:44:57;;;;;;;2.58;0.73;;;;;;;;;;5029065;28;20045;-61
2022/09/01 10:47:32;;;;;;;1.35;0.70;;;;;;;;;;5029499;28;20045;-61
2022/09/01 10:50:24;;;;;;;6.10;0.60;;;;;;;;;;5030812;28;20045;-61
2022/09/01 10:52:58;;;;;;;2.55;0.43;;;;;;;;;;5030484;28;20136;-60
2022/09/01 10:55:25;;;;;;;2.08;0.40;;;;;;;;;;5030437;28;20033;-61
2022/09/01 10:58:02;;;;;;;0.50;0.40;;;;;;;;;;5015726;28;20042;-61
2022/09/01 11:00:28;;;;;;;2.83;0.45;;;;;;;;;;5032849;28;20406;-62
2022/09/01 11:03:12;;;;;;;0.95;0.55;;;;;;;;;;5045687;28;20120;-61
2022/09/01 11:06:11;;;;;;;3.25;0.68;;;;;;;;;;5040998;28;20037;-60
2022/09/01 11:08:45;;;;;;;0.93;0.50;;;;;;;;;;4981990;28;20072;-60
2022/09/01 11:11:16;;;;;;;2.33;0.60;;;;;;;;;;5053225;28;20079;-61
2022/09/01 11:13:42;;;;;;;2.30;0.60;;;;;;;;;;5040091;28;20042;-60
2022/09/01 11:16:26;;;;;;;3.15;0.63;;;;;;;;;;5036484;28;20041;-60
2022/09/01 11:18:52;;;;;;;4.43;0.57;;;;;;;;;;5033536;28;20041;-60
2022/09/01 11:21:28;;;;;;;1.55;0.77;;;;;;;;;;5033068;28;20385;-60
2022/09/01 11:24:13;;;;;;;3.58;0.60;;;;;;;;;;5032918;28;20045;-61
2022/09/01 11:26:47;;;;;;;0.60;0.50;;;;;;;;;;5043199;28;20136;-61
2022/09/01 11:29:32;;;;;;;3.42;0.70;;;;;;;;;;5034561;28;20127;-59
2022/09/01 11:31:58;;;;;;;2.03;0.50;;;;;;;;;;5052636;28;20049;-58
2022/09/01 11:34:25;;;;;;;1.98;0.50;;;;;;;;;;5045486;28;20033;-59
2022/09/01 11:36:54;;;;;;;3.58;0.50;;;;;;;;;;5032570;28;20103;-60
2022/09/01 11:39:25;;;;;;;2.40;0.70;;;;;;;;;;5046497;28;20048;-60
2022/09/01 11:41:51;;;;;;;2.78;0.60;;;;;;;;;;5042229;28;20060;-60
2022/09/01 11:44:24;;;;;;;0.80;0.40;;;;;;;;;;5052483;28;20099;-59
2022/09/01 11:46:52;;;;;;;1.40;0.50;;;;;;;;;;5047273;28;20080;-59
2022/09/01 11:49:26;;;;;;;2.58;0.65;;;;;;;;;;5041107;28;20412;-60
2022/09/01 11:51:53;;;;;;;1.48;0.60;;;;;;;;;;5031939;28;20077;-59
2022/09/01 11:54:19;;;;;;;1.88;0.50;;;;;;;;;;5041440;28;20060;-60
2022/09/01 11:56:45;;;;;;;1.23;0.50;;;;;;;;;;5036437;28;20086;-60
2022/09/01 11:59:11;;;;;;;1.15;0.60;;;;;;;;;;5047425;28;20037;-60
2022/09/01 12:01:38;;;;;;;1.40;0.50;;;;;;;;;;5050834;28;20041;-60
2022/09/01 12:04:21;;;;;;;0.93;0.60;;;;;;;;;;5032640;28;20069;-60
2022/09/01 12:06:54;;;;;;;1.80;0.50;;;;;;;;;;5031212;28;20084;-60
2022/09/01 12:09:20;;;;;;;1.77;0.77;;;;;;;;;;5045961;28;20049;-60
2022/09/01 12:11:47;;;;;;;4.72;0.73;;;;;;;;;;5052165;28;20049;-61
2022/09/01 12:14:19;;;;;;;3.35;0.40;;;;;;;;;;5037149;28;20047;-61
2022/09/01 12:16:55;;;;;;;2.58;0.60;;;;;;;;;;5032266;28;20367;-61
2022/09/01 12:19:23;;;;;;;3.05;0.60;;;;;;;;;;5032469;28;20030;-60
2022/09/01 12:21:57;;;;;;;1.27;0.50;;;;;;;;;;5031978;28;20052;-60
2022/09/01 12:24:24;;;;;;;2.50;0.60;;;;;;;;;;5034508;28;20041;-58
2022/09/01 12:26:57;;;;;;;0.85;0.50;;;;;;;;;;5045784;28;20076;-59
2022/09/01 12:29:24;;;;;;;1.25;0.63;;;;;;;;;;5040224;28;20435;-61
2022/09/01 12:31:51;;;;;;;0.47;0.40;;;;;;;;;;5048984;28;20520;-61
2022/09/01 12:34:24;;;;;;;6.38;0.75;;;;;;;;;;5046746;28;20045;-60
2022/09/01 12:37:05;;;;;;;5.57;0.73;;;;;;;;;;5034556;28;20047;-61
2022/09/01 12:39:35;;;;;;;1.50;0.50;;;;;;;;;;5051473;28;20033;-61
2022/09/01 12:42:18;;;;;;;1.98;0.85;;;;;;;;;;5040709;28;20041;-61
2022/09/01 12:44:45;;;;;;;;;;;;;;;;;;5049295;28;20056;-62
2022/09/01 12:47:13;;;;;;;1.55;0.45;;;;;;;;;;5031672;28;19917;-61
2022/09/01 12:49:41;;;;;;;1.23;0.40;;;;;;;;;;5032353;28;20069;-62
2022/09/01 12:52:10;;;;;;;3.90;0.60;;;;;;;;;;5048956;28;20045;-62
2022/09/01 12:54:37;;;;;;;1.42;0.43;;;;;;;;;;5038295;28;20032;-61
2022/09/01 12:57:04;;;;;;;4.38;0.60;;;;;;;;;;5046421;28;20750;-61
2022/09/01 12:59:30;;;;;;;3.45;0.73;;;;;;;;;;5050603;28;20127;-61
2022/09/01 13:01:56;;;;;;;0.93;0.50;;;;;;;;;;5045194;28;20731;-60
2022/09/01 13:04:24;;;;;;;1.83;0.50;;;;;;;;;;5033245;28;20455;-61
2022/09/01 13:06:51;;;;;;;1.75;0.40;;;;;;;;;;5051172;28;20122;-61
2022/09/01 13:09:17;;;;;;;1.15;0.30;;;;;;;;;;5050418;28;20111;-60
2022/09/01 13:11:46;;;;;;;0.70;0.38;;;;;;;;;;5051044;28;20602;-61
2022/09/01 13:14:12;;;;;;;0.90;0.50;;;;;;;;;;5050570;28;20450;-60
2022/09/01 13:16:38;;;;;;;1.30;0.50;;;;;;;;;;5050471;28;20041;-62
2022/09/01 13:19:05;;;;;;;4.18;0.70;;;;;;;;;;5050136;28;20037;-61
2022/09/01 13:21:33;;;;;;;2.35;0.50;;;;;;;;;;5032148;28;20068;-62
2022/09/01 13:23:59;;;;;;;0.47;0.30;;;;;;;;;;5050625;28;20580;-61
2022/09/01 13:26:26;;;;;;;1.52;0.40;;;;;;;;;;5036099;28;20041;-60
2022/09/01 13:28:52;;;;;;;1.40;0.50;;;;;;;;;;5034295;28;20064;-62
2022/09/01 13:31:18;;;;;;;3.33;0.50;;;;;;;;;;5030887;28;20042;-62
2022/09/01 13:33:44;;;;;;;1.05;0.47;;;;;;;;;;5030902;28;20045;-61
2022/09/01 13:36:10;;;;;;;2.35;0.70;;;;;;;;;;5029868;28;20040;-61
2022/09/01 13:38:38;;;;;;;1.95;0.50;;;;;;;;;;5050133;28;20068;-63
2022/09/01 13:41:04;;;;;;;3.72;0.50;;;;;;;;;;5050780;28;20427;-62
2022/09/01 13:43:30;;;;;;;0.82;0.73;;;;;;;;;;5050473;28;20774;-61
2022/09/01 13:45:56;;;;;;;0.52;0.52;;;;;;;;;;5050404;28;20056;-61
2022/09/01 13:48:22;;;;;;;1.50;0.43;;;;;;;;;;5050417;28;20048;-61
2022/09/01 13:50:51;;;;;;;1.77;0.50;;;;;;;;;;5050722;28;20051;-61
2022/09/01 13:53:18;;;;;;;5.00;0.60;;;;;;;;;;5050350;28;20241;-62
2022/09/01 13:55:44;;;;;;;1.77;0.40;;;;;;;;;;5050763;28;20376;-62
2022/09/01 13:58:11;;;;;;;3.13;0.60;;;;;;;;;;5034313;28;20241;-61
2022/09/01 14:00:39;;;;;;;1.48;0.50;;;;;;;;;;5032571;28;20400;-63
2022/09/01 14:03:06;;;;;;;1.35;0.40;;;;;;;;;;5048879;28;20080;-62
2022/09/01 14:05:34;;;;;;;2.05;0.70;;;;;;;;;;5045606;28;20048;-61
2022/09/01 14:08:00;;;;;;;1.50;0.55;;;;;;;;;;5048513;28;20057;-62
2022/09/01 14:10:28;;;;;;;2.53;0.60;;;;;;;;;;5047472;28;20087;-62
2022/09/01 14:12:54;;;;;;;1.20;0.40;;;;;;;;;;5049713;28;20092;-61
2022/09/01 14:15:20;;;;;;;0.85;0.47;;;;;;;;;;5050460;28;20041;-61
2022/09/01 14:17:48;;;;;;;1.35;0.70;;;;;;;;;;5050067;28;20036;-61
2022/09/01 14:20:17;;;;;;;5.30;0.82;;;;;;;;;;5049270;28;20407;-61
2022/09/01 14:22:44;;;;;;;2.25;0.50;;;;;;;;;;5048411;28;20118;-63
2022/09/01 14:25:10;;;;;;;2.72;0.50;;;;;;;;;;5043847;28;20049;-62
2022/09/01 14:27:37;;;;;;;0.32;0.30;;;;;;;;;;5029852;28;20038;-62
2022/09/01 14:30:05;;;;;;;1.38;0.40;;;;;;;;;;5047081;28;20047;-62
2022/09/01 14:32:31;;;;;;;2.78;0.60;;;;;;;;;;5050195;28;20056;-59
2022/09/01 14:34:57;;;;;;;0.77;0.50;;;;;;;;;;5049503;28;20062;-61
2022/09/01 14:37:24;;;;;;;1.98;0.52;;;;;;;;;;5039001;28;20122;-61
2022/09/01 14:39:51;;;;;;;2.15;0.50;;;;;;;;;;5048606;28;20120;-60
2022/09/01 14:42:18;;;;;;;1.13;0.55;;;;;;;;;;5033582;28;20124;-61
2022/09/01 14:44:44;;;;;;;2.28;0.60;;;;;;;;;;5030084;28;20041;-61
2022/09/01 14:47:10;;;;;;;1.85;0.57;;;;;;;;;;5030065;28;20087;-62
2022/09/01 14:49:37;;;;;;;1.15;0.50;;;;;;;;;;5028586;28;20482;-62
2022/09/01 14:52:05;;;;;;;2.67;0.50;;;;;;;;;;5030258;28;20357;-60
2022/09/01 14:54:33;;;;;;;4.07;0.47;;;;;;;;;;5030052;28;20362;-62
2022/09/01 14:57:00;;;;;;;3.38;0.50;;;;;;;;;;5030007;28;20033;-61